Time;durP1;ratioP1;P1;durP2;ratioP2;P2;SDS_P1;SDS_P2;PMS_P1;PMS_P2;Temp;Humidity;BMP_temperature;BMP_pressure;BME280_temperature;BME280_humidity;BME280_pressure;Samples;Min_cycle;Max_cycle;Signal;HPM_P1;HPM_P2
2021/08/27 00:00:46;;;;;;;27.45;24.48;;;;;;;21.46;81.67;99574.97;5088109;28;20051;-22
2021/08/27 00:03:12;;;;;;;27.20;23.77;;;;;;;21.23;82.41;99561.28;5087930;28;20032;-23
2021/08/27 00:05:37;;;;;;;26.08;23.27;;;;;;;21.25;82.59;99564.50;5087545;28;20130;-22
2021/08/27 00:08:03;;;;;;;28.35;23.27;;;;;;;21.11;83.20;99569.13;5069466;28;20031;-22
2021/08/27 00:10:29;;;;;;;29.17;23.67;;;;;;;21.08;83.08;99564.28;5088505;28;20403;-22
2021/08/27 00:12:54;;;;;;;28.77;24.40;;;;;;;21.51;80.82;99569.44;5088220;28;20028;-22
2021/08/27 00:15:19;;;;;;;29.90;25.20;;;;;;;21.63;80.42;99553.41;5087909;28;20028;-22
2021/08/27 00:17:45;;;;;;;30.77;24.88;;;;;;;21.80;79.03;99557.41;5087803;28;20995;-22
2021/08/27 00:20:11;;;;;;;29.33;25.63;;;;;;;22.05;78.59;99575.84;5087296;28;20032;-22
2021/08/27 00:22:37;;;;;;;29.35;25.45;;;;;;;21.65;79.98;99542.28;5087568;28;20385;-22
2021/08/27 00:25:03;;;;;;;29.45;26.30;;;;;;;21.28;81.71;99547.63;5087695;28;20028;-22
2021/08/27 00:27:29;;;;;;;33.85;27.30;;;;;;;21.67;81.07;99565.28;5087703;28;20028;-22
2021/08/27 00:29:54;;;;;;;34.22;28.33;;;;;;;21.69;80.53;99578.53;5087530;28;20118;-22
2021/08/27 00:32:20;;;;;;;35.53;28.05;;;;;;;22.04;78.62;99566.06;5087261;28;20389;-22
2021/08/27 00:34:45;;;;;;;34.05;28.80;;;;;;;22.18;78.09;99574.16;5087478;28;20032;-22
2021/08/27 00:37:11;;;;;;;34.05;30.02;;;;;;;22.11;78.08;99567.56;5087424;28;20031;-22
2021/08/27 00:39:36;;;;;;;39.38;30.60;;;;;;;22.43;75.98;99570.06;5087396;28;20032;-22
2021/08/27 00:42:02;;;;;;;32.95;28.73;;;;;;;21.94;78.30;99555.44;5087067;28;20020;-22
2021/08/27 00:44:27;;;;;;;34.85;29.75;;;;;;;21.51;80.21;99558.56;5087318;28;20472;-22
2021/08/27 00:46:53;;;;;;;38.28;29.20;;;;;;;21.33;82.02;99564.91;5087180;28;20032;-22
2021/08/27 00:49:18;;;;;;;33.25;29.13;;;;;;;21.30;81.89;99557.38;5087326;28;20454;-22
2021/08/27 00:51:44;;;;;;;34.88;28.92;;;;;;;21.14;82.93;99546.81;5087352;28;20085;-22
2021/08/27 00:54:09;;;;;;;38.47;30.05;;;;;;;21.24;82.26;99533.06;5087505;28;20824;-22
2021/08/27 00:56:35;;;;;;;35.60;30.13;;;;;;;21.12;82.64;99543.63;5087161;28;20540;-22
2021/08/27 00:59:00;;;;;;;38.67;32.50;;;;;;;21.03;83.37;99553.56;5086930;28;20059;-22
2021/08/27 01:01:26;;;;;;;38.35;33.10;;;;;;;20.89;83.41;99539.22;5087141;28;20408;-22
2021/08/27 01:03:52;;;;;;;40.95;35.90;;;;;;;20.89;83.78;99539.22;5087085;28;20036;-22
2021/08/27 01:06:22;;;;;;;40.28;34.50;;;;;;;20.93;83.53;99545.63;5086566;28;20027;-22
2021/08/27 01:08:55;;;;;;;41.03;35.53;;;;;;;21.12;82.60;99551.75;5070387;28;20043;-22
2021/08/27 01:11:28;;;;;;;40.15;35.45;;;;;;;21.39;80.12;99555.53;5073439;28;20040;-22
2021/08/27 01:14:04;;;;;;;41.65;35.25;;;;;;;21.29;80.31;99556.59;5091169;28;20457;-22
2021/08/27 01:16:34;;;;;;;47.58;36.80;;;;;;;21.69;78.61;99561.47;5073047;28;20024;-22
2021/08/27 01:19:05;;;;;;;44.97;36.05;;;;;;;21.18;79.41;99569.53;5072751;28;20093;-22
2021/08/27 01:21:51;;;;;;;47.78;36.30;;;;;;;21.10;79.65;99567.50;5091724;28;20475;-22
2021/08/27 01:24:17;;;;;;;43.40;36.75;;;;;;;21.32;78.68;99576.88;5091129;28;20792;-22
2021/08/27 01:26:46;;;;;;;47.45;38.75;;;;;;;21.26;79.10;99573.44;5091312;28;20194;-22
2021/08/27 01:29:11;;;;;;;45.10;38.33;;;;;;;21.48;78.42;99567.34;5056429;28;20544;-22
2021/08/27 01:32:06;;;;;;;46.67;37.90;;;;;;;21.40;77.93;99554.44;5056565;28;20028;-22
2021/08/27 01:34:36;;;;;;;45.95;38.13;;;;;;;21.61;77.18;99550.22;5058597;28;20032;-22
2021/08/27 01:37:08;;;;;;;46.33;39.33;;;;;;;21.62;77.58;99559.97;5072733;28;20027;-22
2021/08/27 01:39:37;;;;;;;46.13;37.53;;;;;;;21.33;79.07;99562.19;5072310;28;20090;-22
2021/08/27 01:42:03;;;;;;;42.78;37.58;;;;;;;21.33;78.10;99544.03;5056276;28;20097;-22
2021/08/27 01:44:29;;;;;;;45.05;37.35;;;;;;;20.89;79.31;99542.72;5072297;28;20036;-22
2021/08/27 01:46:57;;;;;;;47.78;39.15;;;;;;;21.19;79.84;99559.50;5090691;28;20051;-22
2021/08/27 01:49:22;;;;;;;46.47;39.05;;;;;;;21.14;79.54;99551.44;5090341;28;20040;-22
2021/08/27 01:51:48;;;;;;;48.45;38.70;;;;;;;21.07;79.59;99552.66;5072281;28;20082;-22
2021/08/27 01:54:14;;;;;;;43.90;38.20;;;;;;;20.87;81.05;99543.00;5071847;28;20073;-22
2021/08/27 01:56:39;;;;;;;43.60;36.45;;;;;;;20.72;82.11;99546.00;5072279;28;20032;-22
2021/08/27 01:59:05;;;;;;;46.10;37.92;;;;;;;20.63;82.21;99536.94;5072112;28;20056;-22
2021/08/27 02:01:31;;;;;;;45.90;37.33;;;;;;;20.57;82.51;99532.69;5055375;28;20032;-22
2021/08/27 02:03:56;;;;;;;44.38;37.85;;;;;;;20.78;81.62;99549.41;5072090;28;20032;-22
2021/08/27 02:06:22;;;;;;;42.33;35.67;;;;;;;20.27;83.57;99541.06;5071722;28;20031;-22
2021/08/27 02:08:48;;;;;;;41.58;33.60;;;;;;;20.14;83.51;99551.84;5090096;28;20032;-22
2021/08/27 02:11:13;;;;;;;43.45;35.47;;;;;;;20.34;82.83;99554.22;5072364;28;20111;-22
2021/08/27 02:13:38;;;;;;;46.42;36.70;;;;;;;20.75;80.47;99561.66;5072116;28;20039;-22
2021/08/27 02:16:06;;;;;;;42.72;36.78;;;;;;;20.95;78.47;99546.13;5055215;28;20089;-22
2021/08/27 02:18:32;;;;;;;47.53;38.85;;;;;;;20.93;78.81;99548.34;5055578;28;20859;-22
2021/08/27 02:20:58;;;;;;;49.35;39.67;;;;;;;20.86;79.17;99537.88;5089765;28;20035;-22
2021/08/27 02:23:23;;;;;;;49.78;40.03;;;;;;;21.12;78.16;99538.19;5071623;28;20032;-22
2021/08/27 02:25:49;;;;;;;46.83;37.60;;;;;;;20.98;78.74;99526.53;5071712;28;20498;-22
2021/08/27 02:28:14;;;;;;;50.58;39.95;;;;;;;20.58;80.50;99518.06;5089719;28;20032;-22
2021/08/27 02:30:40;;;;;;;47.83;36.33;;;;;;;20.38;81.95;99517.31;5054991;28;20476;-22
2021/08/27 02:33:08;;;;;;;48.05;36.00;;;;;;;20.14;82.61;99524.75;5071531;28;20039;-22
2021/08/27 02:35:34;;;;;;;49.78;35.95;;;;;;;19.94;84.45;99509.66;5071603;28;20085;-22
2021/08/27 02:37:59;;;;;;;82.78;37.10;;;;;;;19.58;85.94;99529.88;5071209;28;20434;-22
2021/08/27 02:40:25;;;;;;;102.05;40.97;;;;;;;20.05;83.82;99533.56;5054579;28;20059;-22
2021/08/27 02:42:50;;;;;;;69.53;39.20;;;;;;;20.37;81.95;99561.75;5090134;28;20389;-22
2021/08/27 02:45:15;;;;;;;80.80;35.15;;;;;;;20.37;81.27;99567.19;5089396;28;20032;-22
2021/08/27 02:47:42;;;;;;;89.50;35.85;;;;;;;20.45;80.55;99555.66;5089378;28;20096;-22
2021/08/27 02:50:08;;;;;;;55.45;35.60;;;;;;;20.58;79.89;99545.16;5088845;28;20103;-22
2021/08/27 02:52:36;;;;;;;45.35;34.20;;;;;;;20.54;80.15;99530.59;5089102;28;20027;-22
2021/08/27 02:55:04;;;;;;;44.78;32.38;;;;;;;19.92;83.47;99504.56;5089288;28;20373;-22
2021/08/27 02:57:37;;;;;;;53.95;30.75;;;;;;;19.93;83.57;99503.44;5071049;28;20518;-22
2021/08/27 03:00:04;;;;;;;44.78;31.38;;;;;;;19.94;84.57;99518.59;5070633;28;20064;-22
2021/08/27 03:02:29;;;;;;;47.80;31.60;;;;;;;20.21;83.66;99531.41;5070971;28;20031;-22
2021/08/27 03:05:12;;;;;;;46.10;32.78;;;;;;;20.80;80.01;99531.78;5088879;28;20024;-22
2021/08/27 03:07:42;;;;;;;58.40;34.75;;;;;;;20.85;79.75;99528.94;5055409;28;20024;-22
2021/08/27 03:10:09;;;;;;;66.82;35.05;;;;;;;20.94;79.83;99537.19;5070762;28;20147;-22
2021/08/27 03:13:04;;;;;;;70.00;36.90;;;;;;;20.86;79.92;99514.31;5089009;28;20965;-22
2021/08/27 03:15:41;;;;;;;117.10;37.38;;;;;;;21.01;79.70;99515.91;5070432;28;20032;-22
2021/08/27 03:18:11;;;;;;;;;;;;;;;20.96;80.42;99534.19;5089133;28;20028;-22
2021/08/27 03:20:43;;;;;;;116.93;37.17;;;;;;;20.96;80.84;99526.03;5088996;28;19923;-22
2021/08/27 03:23:09;;;;;;;108.35;39.75;;;;;;;21.19;79.96;99533.19;5070408;28;20420;-22
2021/08/27 03:25:37;;;;;;;94.15;38.75;;;;;;;21.18;80.14;99542.41;5070355;28;20027;-22
2021/08/27 03:28:03;;;;;;;84.22;40.25;;;;;;;20.95;82.08;99538.81;5070175;28;20038;-22
2021/08/27 03:30:29;;;;;;;110.63;39.78;;;;;;;20.53;83.73;99510.03;5053710;28;20031;-22
2021/08/27 03:33:03;;;;;;;95.75;37.17;;;;;;;20.75;83.44;99533.78;5053089;28;20036;-22
2021/08/27 03:35:28;;;;;;;79.03;37.10;;;;;;;20.48;84.61;99533.38;5088288;28;20021;-23
2021/08/27 03:37:54;;;;;;;89.30;37.80;;;;;;;20.31;86.33;99535.03;5088591;28;20036;-22
2021/08/27 03:40:20;;;;;;;109.70;38.65;;;;;;;20.51;85.08;99542.81;5053754;28;20043;-22
2021/08/27 03:42:45;;;;;;;87.25;39.78;;;;;;;20.81;82.50;99532.56;5088353;28;20070;-22
2021/08/27 03:45:12;;;;;;;117.70;39.58;;;;;;;20.75;83.38;99539.19;5068198;28;20024;-22
2021/08/27 03:47:42;;;;;;;78.40;37.63;;;;;;;20.40;85.39;99544.91;5053048;28;20089;-22
2021/08/27 03:50:08;;;;;;;85.40;39.55;;;;;;;20.40;86.18;99555.75;5070696;28;20043;-22
2021/08/27 03:52:34;;;;;;;81.75;44.28;;;;;;;20.43;85.90;99549.75;5087925;28;20086;-22
2021/08/27 03:55:00;;;;;;;92.45;43.28;;;;;;;20.69;84.72;99562.84;5087989;28;20500;-22
2021/08/27 03:57:26;;;;;;;99.40;46.25;;;;;;;20.78;83.30;99539.41;5070310;28;20078;-22
2021/08/27 03:59:51;;;;;;;80.70;45.67;;;;;;;20.69;83.42;99557.44;5053338;28;20064;-22
2021/08/27 04:02:17;;;;;;;82.90;45.15;;;;;;;20.64;83.11;99568.38;5087825;28;20035;-22
2021/08/27 04:04:42;;;;;;;148.25;46.28;;;;;;;20.89;81.06;99561.69;5087965;28;20024;-22
2021/08/27 04:07:08;;;;;;;98.40;46.10;;;;;;;21.20;79.25;99567.31;5087779;28;20024;-22
2021/08/27 04:09:35;;;;;;;116.55;49.13;;;;;;;21.26;79.07;99571.53;5087494;28;20036;-22
2021/08/27 04:12:02;;;;;;;108.20;49.63;;;;;;;21.49;77.96;99577.06;5087851;28;20032;-22
2021/08/27 04:14:28;;;;;;;96.40;48.75;;;;;;;21.47;78.52;99565.72;5087784;28;20035;-22
2021/08/27 04:16:54;;;;;;;151.48;44.47;;;;;;;21.52;77.41;99554.75;5087636;28;20082;-22
2021/08/27 04:19:19;;;;;;;159.73;40.55;;;;;;;21.33;79.45;99570.31;5087667;28;20544;-22
2021/08/27 04:21:45;;;;;;;105.90;39.03;;;;;;;20.91;81.98;99559.47;5087717;28;20039;-22
2021/08/27 04:24:10;;;;;;;89.70;38.97;;;;;;;20.54;84.18;99554.97;5087536;28;20024;-22
2021/08/27 04:26:36;;;;;;;106.70;39.58;;;;;;;20.12;87.17;99554.84;5087580;28;20484;-22
2021/08/27 04:29:01;;;;;;;101.82;41.08;;;;;;;19.70;88.33;99558.44;5087511;28;20036;-22
2021/08/27 04:31:27;;;;;;;83.20;41.47;;;;;;;19.47;91.56;99575.22;5087536;28;20042;-22
2021/08/27 04:33:53;;;;;;;91.75;40.20;;;;;;;19.81;90.26;99570.72;5069382;28;20036;-22
2021/08/27 04:36:18;;;;;;;104.88;42.42;;;;;;;20.06;90.07;99573.06;5087051;28;20024;-22
2021/08/27 04:38:44;;;;;;;114.78;43.53;;;;;;;20.76;86.19;99573.28;5087265;28;20472;-22
2021/08/27 04:41:09;;;;;;;74.78;39.67;;;;;;;20.71;85.50;99565.28;5087519;28;20601;-22
2021/08/27 04:43:35;;;;;;;61.08;36.60;;;;;;;20.48;85.64;99554.25;5087484;28;20040;-22
2021/08/27 04:46:00;;;;;;;48.40;33.42;;;;;;;20.32;87.24;99569.16;5087221;28;20016;-22
2021/08/27 04:48:26;;;;;;;60.97;33.63;;;;;;;20.26;87.32;99557.59;5087547;28;20040;-22
2021/08/27 04:50:51;;;;;;;56.70;34.35;;;;;;;20.27;87.42;99568.13;5087136;28;20036;-22
2021/08/27 04:53:17;;;;;;;46.25;31.25;;;;;;;20.41;87.53;99562.78;5087086;28;20453;-22
2021/08/27 04:55:42;;;;;;;44.47;31.75;;;;;;;20.47;86.30;99549.94;5087438;28;20020;-22
2021/08/27 04:58:08;;;;;;;42.15;29.45;;;;;;;20.33;86.44;99533.66;5087135;28;20036;-22
2021/08/27 05:00:33;;;;;;;42.45;28.95;;;;;;;20.42;86.11;99537.28;5087343;28;20066;-22
2021/08/27 05:02:59;;;;;;;31.75;23.98;;;;;;;20.62;85.22;99540.78;5087107;28;20399;-22
2021/08/27 05:05:24;;;;;;;27.23;21.75;;;;;;;20.56;84.52;99536.53;5087034;28;20511;-22
2021/08/27 05:07:50;;;;;;;24.15;20.80;;;;;;;20.51;84.80;99540.09;5086958;28;20032;-22
2021/08/27 05:10:15;;;;;;;21.70;18.55;;;;;;;20.47;85.50;99545.34;5086874;28;20522;-22
2021/08/27 05:12:41;;;;;;;25.55;21.15;;;;;;;20.68;84.60;99547.72;5087141;28;20024;-22
2021/08/27 05:15:07;;;;;;;25.20;20.33;;;;;;;20.34;84.79;99532.56;5087140;28;20141;-22
2021/08/27 05:17:32;;;;;;;22.40;20.00;;;;;;;20.67;84.14;99551.50;5087350;28;20407;-22
2021/08/27 05:19:58;;;;;;;24.30;20.10;;;;;;;20.57;83.95;99576.03;5086900;28;20036;-22
2021/08/27 05:22:23;;;;;;;22.00;19.00;;;;;;;20.75;83.18;99560.88;5086626;28;20024;-22
2021/08/27 05:24:48;;;;;;;21.25;18.45;;;;;;;21.19;81.32;99571.13;5086840;28;20395;-22
2021/08/27 05:27:14;;;;;;;19.95;17.20;;;;;;;21.48;79.06;99571.97;5087084;28;20031;-23
2021/08/27 05:29:40;;;;;;;22.25;17.05;;;;;;;21.35;78.60;99573.53;5086979;28;20503;-22
2021/08/27 05:32:06;;;;;;;20.42;18.25;;;;;;;21.30;78.83;99576.38;5086750;28;20039;-22
2021/08/27 05:34:32;;;;;;;22.75;18.60;;;;;;;21.30;78.96;99582.56;5086930;28;20036;-22
2021/08/27 05:36:57;;;;;;;23.85;19.98;;;;;;;21.27;80.80;99594.03;5087115;28;20081;-22
2021/08/27 05:39:27;;;;;;;24.65;20.33;;;;;;;21.50;78.11;99561.63;5086983;28;20380;-22
2021/08/27 05:41:53;;;;;;;24.73;17.50;;;;;;;21.88;77.10;99567.53;5086970;28;20024;-22
2021/08/27 05:44:18;;;;;;;27.02;22.02;;;;;;;22.02;76.75;99573.72;5086684;28;20410;-22
2021/08/27 05:46:44;;;;;;;27.02;22.85;;;;;;;22.19;76.59;99580.41;5086677;28;20028;-22
2021/08/27 05:49:09;;;;;;;29.27;23.20;;;;;;;21.80;77.68;99590.78;5086574;28;20056;-22
2021/08/27 05:51:35;;;;;;;32.75;25.23;;;;;;;21.53;79.28;99605.19;5086678;28;20032;-23
2021/08/27 05:54:00;;;;;;;34.08;27.02;;;;;;;21.45;80.80;99605.91;5086486;28;20032;-22
2021/08/27 05:56:26;;;;;;;39.63;28.55;;;;;;;21.80;80.14;99622.53;5090296;28;20490;-23
2021/08/27 05:58:51;;;;;;;38.30;29.98;;;;;;;21.98;79.12;99618.88;5090025;28;20047;-22
2021/08/27 06:01:16;;;;;;;39.88;30.60;;;;;;;22.12;77.08;99590.91;5090517;28;20036;-22
2021/08/27 06:03:42;;;;;;;37.00;28.90;;;;;;;22.40;75.92;99589.69;5090070;28;20024;-22
2021/08/27 06:06:07;;;;;;;35.55;26.60;;;;;;;22.40;75.85;99600.56;5089672;28;20024;-22
2021/08/27 06:08:35;;;;;;;34.72;27.48;;;;;;;22.39;77.44;99618.00;5090059;28;20031;-22
2021/08/27 06:11:00;;;;;;;33.13;27.03;;;;;;;22.41;76.31;99607.63;5092782;28;20051;-22
2021/08/27 06:13:26;;;;;;;38.78;30.20;;;;;;;22.49;76.04;99611.47;5090007;28;20484;-22
2021/08/27 06:15:51;;;;;;;42.28;32.92;;;;;;;22.55;77.86;99632.00;5090225;28;20024;-22
2021/08/27 06:18:16;;;;;;;40.25;31.65;;;;;;;22.57;77.04;99635.19;5089997;28;20036;-22
2021/08/27 06:20:42;;;;;;;48.25;36.50;;;;;;;22.34;78.56;99623.53;5090105;28;20097;-22
2021/08/27 06:23:07;;;;;;;51.50;39.40;;;;;;;22.54;76.60;99637.75;5089710;28;20032;-22
2021/08/27 06:25:33;;;;;;;56.17;41.60;;;;;;;22.49;77.02;99646.81;5089815;28;20408;-22
2021/08/27 06:53:06;;;;;;;57.80;42.17;;;;;;;22.14;82.11;99629.41;4864517;27;8266157;-22
2021/08/27 06:55:32;;;;;;;55.05;40.08;;;;;;;22.61;78.42;99638.91;5105499;28;20035;-22
2021/08/27 06:57:59;;;;;;;53.05;38.28;;;;;;;22.94;76.94;99637.81;5105053;28;20039;-22
2021/08/27 07:00:26;;;;;;;52.67;40.40;;;;;;;23.16;75.98;99639.72;5105258;28;20495;-22
2021/08/27 07:02:52;;;;;;;49.63;38.63;;;;;;;23.64;73.95;99631.56;5105172;28;20024;-22
2021/08/27 07:05:17;;;;;;;52.00;37.63;;;;;;;23.62;71.48;99635.72;5103795;28;20036;-22
2021/08/27 07:07:43;;;;;;;43.35;33.88;;;;;;;23.37;71.08;99637.25;5105078;28;20114;-22
2021/08/27 07:10:08;;;;;;;47.90;36.28;;;;;;;23.68;72.11;99642.63;5105076;28;20031;-22
2021/08/27 07:12:34;;;;;;;45.53;34.35;;;;;;;23.59;71.93;99642.59;5104930;28;20054;-22
2021/08/27 07:14:59;;;;;;;46.42;34.17;;;;;;;23.60;71.45;99655.09;5104972;28;20030;-22
2021/08/27 07:17:25;;;;;;;51.15;35.33;;;;;;;23.72;71.41;99643.59;5104967;28;20043;-22
2021/08/27 07:19:50;;;;;;;43.45;34.90;;;;;;;23.69;70.17;99649.66;5104930;28;20031;-22
2021/08/27 07:22:16;;;;;;;40.20;32.92;;;;;;;24.15;70.38;99642.06;5105026;28;20085;-22
2021/08/27 07:24:41;;;;;;;40.55;31.83;;;;;;;24.43;68.62;99637.91;5103350;28;20035;-22
2021/08/27 07:27:09;;;;;;;40.58;33.80;;;;;;;24.95;67.11;99642.50;5105039;28;20092;-22
2021/08/27 07:29:35;;;;;;;33.42;29.23;;;;;;;24.73;64.17;99640.00;5104841;28;20032;-22
2021/08/27 07:32:00;;;;;;;39.95;31.75;;;;;;;24.70;65.19;99648.78;5104948;28;20387;-22
2021/08/27 07:34:26;;;;;;;55.17;44.65;;;;;;;24.52;68.96;99651.56;5104684;28;20113;-23
2021/08/27 07:36:51;;;;;;;65.90;57.45;;;;;;;24.82;67.15;99649.72;5104307;28;20032;-22
2021/08/27 07:39:17;;;;;;;40.25;33.28;;;;;;;24.63;65.51;99619.31;5104226;28;20085;-22
2021/08/27 07:41:42;;;;;;;38.55;33.20;;;;;;;25.11;64.09;99636.50;5104184;28;20024;-22
2021/08/27 07:44:08;;;;;;;38.13;31.45;;;;;;;25.02;65.70;99642.78;5104144;28;20107;-23
2021/08/27 07:46:33;;;;;;;31.58;27.98;;;;;;;24.90;62.74;99639.13;5104192;28;20036;-22
2021/08/27 07:48:59;;;;;;;39.47;32.25;;;;;;;24.89;65.59;99653.88;5103745;28;20391;-22
2021/08/27 07:51:24;;;;;;;36.90;32.70;;;;;;;24.73;65.17;99640.78;5104008;28;20058;-23
2021/08/27 07:53:50;;;;;;;42.60;35.83;;;;;;;24.85;65.91;99646.38;5114007;28;20059;-22
2021/08/27 07:56:15;;;;;;;40.92;34.45;;;;;;;24.69;66.01;99649.94;5124436;28;20031;-22
2021/08/27 07:58:40;;;;;;;40.22;33.63;;;;;;;24.17;67.18;99645.28;5124770;28;20039;-22
2021/08/27 08:01:06;;;;;;;40.28;32.65;;;;;;;24.39;66.46;99641.59;5124648;28;20035;-22
2021/08/27 08:03:31;;;;;;;38.45;33.50;;;;;;;24.43;66.72;99640.63;5113999;28;20410;-22
2021/08/27 08:05:57;;;;;;;39.97;33.35;;;;;;;24.76;65.54;99639.31;5111117;28;20317;-22
2021/08/27 08:08:22;;;;;;;36.92;32.92;;;;;;;25.23;64.27;99626.53;5110722;28;20088;-22
2021/08/27 08:10:48;;;;;;;35.53;31.25;;;;;;;25.35;64.06;99638.69;5110191;28;20026;-22
2021/08/27 08:13:13;;;;;;;39.40;35.08;;;;;;;25.55;63.03;99643.41;5110602;28;20035;-22
2021/08/27 08:15:38;;;;;;;40.58;36.25;;;;;;;25.64;65.42;99640.59;5110707;28;20031;-22
2021/08/27 08:18:04;;;;;;;38.45;32.03;;;;;;;25.58;63.34;99642.75;5110446;28;20027;-22
2021/08/27 08:20:30;;;;;;;37.70;32.78;;;;;;;25.14;66.26;99644.03;5110380;28;20042;-22
2021/08/27 08:22:57;;;;;;;36.53;30.80;;;;;;;25.45;64.82;99635.56;5110168;28;20040;-22
2021/08/27 08:25:22;;;;;;;32.47;29.08;;;;;;;25.70;61.10;99633.03;5110131;28;20032;-22
2021/08/27 08:27:47;;;;;;;31.55;28.17;;;;;;;25.69;62.58;99632.25;5092567;28;20027;-22
2021/08/27 08:30:13;;;;;;;32.28;28.88;;;;;;;25.83;62.33;99610.94;5110432;28;20024;-22
2021/08/27 08:32:38;;;;;;;30.70;27.00;;;;;;;25.73;63.21;99626.91;5110395;28;20398;-22
2021/08/27 08:35:04;;;;;;;29.63;26.38;;;;;;;25.63;64.21;99634.34;5109912;28;20094;-22
2021/08/27 08:37:30;;;;;;;30.67;27.13;;;;;;;25.94;61.38;99635.16;5091823;28;20031;-23
2021/08/27 08:39:55;;;;;;;30.38;27.00;;;;;;;25.96;62.05;99628.22;5110403;28;20038;-22
2021/08/27 08:42:21;;;;;;;29.80;26.70;;;;;;;26.08;60.16;99618.50;5110520;28;20023;-22
2021/08/27 08:44:46;;;;;;;29.80;25.60;;;;;;;26.48;58.19;99615.25;5109989;28;20039;-22
2021/08/27 08:47:12;;;;;;;30.77;26.30;;;;;;;26.66;59.05;99613.97;5110024;28;20105;-22
2021/08/27 08:49:37;;;;;;;33.00;29.48;;;;;;;26.62;59.25;99618.50;5091849;28;20102;-22
2021/08/27 08:52:03;;;;;;;31.98;28.55;;;;;;;26.69;61.56;99618.78;5091595;28;20032;-22
2021/08/27 08:54:29;;;;;;;33.90;30.08;;;;;;;26.59;63.10;99619.19;5109697;28;20062;-22
2021/08/27 08:56:55;;;;;;;32.58;29.08;;;;;;;26.77;61.54;99611.63;5091724;28;20115;-22
2021/08/27 08:59:21;;;;;;;29.95;25.98;;;;;;;26.95;56.64;99621.22;5091756;28;20569;-22
2021/08/27 09:01:46;;;;;;;33.35;29.73;;;;;;;27.28;57.21;99627.78;5074973;28;20043;-22
2021/08/27 09:04:12;;;;;;;33.17;29.65;;;;;;;26.90;59.19;99634.31;5109608;28;20039;-23
2021/08/27 09:06:37;;;;;;;33.28;29.73;;;;;;;27.08;56.82;99619.31;5109839;28;20460;-22
2021/08/27 09:09:03;;;;;;;31.88;28.48;;;;;;;27.03;55.38;99594.88;5091003;28;20024;-22
2021/08/27 09:11:29;;;;;;;33.92;30.35;;;;;;;27.43;56.42;99613.41;5091374;28;20031;-22
2021/08/27 09:14:02;;;;;;;37.85;33.60;;;;;;;26.70;58.40;99603.94;5108879;28;20498;-22
2021/08/27 09:16:29;;;;;;;40.28;33.35;;;;;;;27.00;57.01;99612.00;5090978;28;20062;-23
2021/08/27 09:18:55;;;;;;;39.13;34.33;;;;;;;26.91;56.90;99603.91;5109167;28;20027;-22
2021/08/27 09:21:35;;;;;;;36.63;31.85;;;;;;;26.83;56.63;99608.31;5109554;28;20035;-22
2021/08/27 09:24:15;;;;;;;38.90;33.83;;;;;;;26.40;58.81;99600.53;5110041;28;20035;-22
2021/08/27 09:26:42;;;;;;;40.30;33.80;;;;;;;26.17;58.69;99595.41;5108937;28;20118;-22
2021/08/27 09:29:07;;;;;;;40.38;33.25;;;;;;;26.11;58.24;99598.69;5108941;28;20026;-22
2021/08/27 09:31:33;;;;;;;36.75;32.38;;;;;;;25.78;59.85;99596.66;5109196;28;20020;-22
2021/08/27 09:33:59;;;;;;;37.55;32.33;;;;;;;26.12;58.92;99594.84;5109223;28;20101;-22
2021/08/27 09:36:24;;;;;;;37.13;31.90;;;;;;;26.54;58.15;99583.81;5109012;28;20436;-22
2021/08/27 09:39:03;;;;;;;34.22;29.75;;;;;;;26.67;57.69;99593.69;5108883;28;20024;-22
2021/08/27 09:41:28;;;;;;;34.75;30.58;;;;;;;27.01;57.30;99583.47;5108905;28;20434;-22
2021/08/27 09:43:55;;;;;;;35.15;31.13;;;;;;;27.28;57.15;99597.66;5108879;28;20502;-22
2021/08/27 09:46:38;;;;;;;35.77;30.80;;;;;;;27.22;56.61;99586.91;5108873;28;20028;-22
2021/08/27 09:49:05;;;;;;;36.70;32.70;;;;;;;27.28;58.58;99575.75;5108723;28;20257;-22
2021/08/27 09:51:40;;;;;;;35.35;31.55;;;;;;;27.10;57.20;99589.66;5108573;28;20564;-22
2021/08/27 09:54:05;;;;;;;33.50;30.00;;;;;;;27.33;55.38;99591.97;5108636;28;20109;-22
2021/08/27 09:56:48;;;;;;;31.73;28.35;;;;;;;27.81;55.28;99579.34;5090480;28;20035;-22
2021/08/27 09:59:14;;;;;;;33.92;30.25;;;;;;;28.05;54.15;99578.47;5108575;28;20031;-22
2021/08/27 10:01:49;;;;;;;33.35;29.85;;;;;;;28.12;53.69;99566.94;5108476;28;20364;-22
2021/08/27 10:04:15;;;;;;;31.58;28.17;;;;;;;28.66;51.27;99566.44;5108848;28;20037;-22
2021/08/27 10:06:40;;;;;;;31.10;27.42;;;;;;;28.54;52.98;99566.53;5108191;28;20388;-23
2021/08/27 10:09:06;;;;;;;31.75;28.45;;;;;;;28.39;52.59;99565.31;5090316;28;20039;-22
2021/08/27 10:11:32;;;;;;;35.25;31.52;;;;;;;28.37;52.61;99568.41;5108214;28;20479;-22
2021/08/27 10:13:58;;;;;;;33.88;30.27;;;;;;;28.34;52.97;99569.13;5108602;28;20035;-22
2021/08/27 10:16:23;;;;;;;34.40;30.83;;;;;;;28.67;53.64;99550.78;5090174;28;20027;-22
2021/08/27 10:18:49;;;;;;;35.08;31.58;;;;;;;28.58;52.76;99543.50;5089908;28;20497;-22
2021/08/27 10:21:14;;;;;;;33.75;29.70;;;;;;;28.52;53.02;99542.19;5108335;28;20414;-22
2021/08/27 10:23:40;;;;;;;33.85;30.33;;;;;;;28.95;51.09;99553.44;5109195;28;20027;-22
2021/08/27 10:26:20;;;;;;;32.33;28.80;;;;;;;28.58;51.68;99551.75;5107922;28;20028;-22
2021/08/27 10:28:45;;;;;;;31.38;28.10;;;;;;;28.78;51.76;99538.91;5108397;28;20224;-22
2021/08/27 10:31:11;;;;;;;30.23;27.15;;;;;;;28.66;52.35;99549.97;5073176;28;20827;-22
2021/08/27 10:33:42;;;;;;;31.83;28.33;;;;;;;28.53;50.90;99543.00;5108056;28;20080;-22
2021/08/27 10:36:23;;;;;;;31.00;27.80;;;;;;;29.02;50.96;99542.66;5108294;28;20112;-22
2021/08/27 10:38:51;;;;;;;31.75;28.45;;;;;;;29.55;50.31;99520.31;5107896;28;20043;-22
2021/08/27 10:41:16;;;;;;;30.70;27.40;;;;;;;29.91;49.19;99543.06;5108028;28;20024;-22
2021/08/27 10:43:51;;;;;;;30.88;27.73;;;;;;;29.44;48.99;99536.56;5108023;28;20031;-22
2021/08/27 10:46:16;;;;;;;29.45;26.45;;;;;;;29.76;48.13;99533.75;5108097;28;20063;-22
2021/08/27 10:48:52;;;;;;;28.67;25.67;;;;;;;29.96;47.77;99513.34;5108200;28;20811;-22
2021/08/27 10:51:37;;;;;;;27.15;24.30;;;;;;;29.78;46.46;99531.41;5107692;28;20729;-22
2021/08/27 10:54:03;;;;;;;29.52;26.42;;;;;;;29.30;50.71;99497.78;5107738;28;20506;-22
2021/08/27 10:56:53;;;;;;;28.92;25.88;;;;;;;29.62;48.28;99517.72;5107774;28;20036;-22
2021/08/27 10:59:34;;;;;;;27.40;24.55;;;;;;;29.77;47.64;99516.06;5107924;28;20058;-22
2021/08/27 11:02:00;;;;;;;27.60;24.70;;;;;;;30.09;49.19;99505.72;5108036;28;20827;-22
2021/08/27 11:04:26;;;;;;;28.83;24.73;;;;;;;30.18;44.33;99510.97;5107939;28;20059;-22
2021/08/27 11:06:59;;;;;;;27.48;24.80;;;;;;;30.46;45.70;99501.69;5107616;28;20043;-22
2021/08/27 11:09:29;;;;;;;28.08;25.08;;;;;;;30.74;44.94;99499.41;5107958;28;20225;-22
2021/08/27 11:12:07;;;;;;;25.92;23.23;;;;;;;31.13;44.26;99510.25;5107841;28;20023;-22
2021/08/27 11:14:34;;;;;;;26.75;24.05;;;;;;;31.35;42.71;99513.31;5107801;28;20034;-22
2021/08/27 11:17:01;;;;;;;27.33;24.63;;;;;;;31.58;42.31;99500.25;5107621;28;20071;-22
2021/08/27 11:19:27;;;;;;;27.42;24.55;;;;;;;31.35;43.06;99485.78;5107542;28;20501;-22
2021/08/27 11:22:17;;;;;;;26.90;24.00;;;;;;;31.84;42.85;99495.84;5107720;28;20033;-22
2021/08/27 11:45:21;;;;;;;23.63;21.17;;;;;;;31.20;43.54;99488.34;4866026;27;8220990;-22
2021/08/27 11:47:51;;;;;;;21.48;19.08;;;;;;;31.99;39.17;99480.25;5105371;28;20939;-22
2021/08/27 11:50:38;;;;;;;22.67;20.40;;;;;;;32.57;39.27;99495.44;5105187;28;20119;-22
2021/08/27 11:53:04;;;;;;;22.75;20.48;;;;;;;32.47;40.68;99494.16;5103476;28;20510;-22
2021/08/27 11:55:30;;;;;;;22.90;20.52;;;;;;;32.42;37.78;99492.50;5105500;28;20085;-22
2021/08/27 11:57:56;;;;;;;22.67;20.38;;;;;;;32.72;38.19;99483.34;5105722;28;20036;-22
2021/08/27 12:00:30;;;;;;;24.85;22.30;;;;;;;32.97;40.10;99489.03;5105194;28;20024;-22
2021/08/27 12:02:56;;;;;;;22.33;20.02;;;;;;;32.58;40.10;99494.25;5104868;28;20546;-22